Time;durP1;ratioP1;P1;durP2;ratioP2;P2;SDS_P1;SDS_P2;PMS_P1;PMS_P2;Temp;Humidity;BMP_temperature;BMP_pressure;BME280_temperature;BME280_humidity;BME280_pressure;Samples;Min_cycle;Max_cycle;Signal;HPM_P1;HPM_P2
2022/09/22 00:01:44;;;;;;;9.00;4.60;;;7.40;21.10;;;;;;7363377;19;20018;-65
2022/09/22 00:04:14;;;;;;;6.57;4.13;;;7.30;21.10;;;;;;7363735;19;20071;-65
2022/09/22 00:06:50;;;;;;;5.43;4.03;;;7.40;21.10;;;;;;7359346;19;20050;-65
2022/09/22 00:09:22;;;;;;;5.45;4.15;;;7.50;20.30;;;;;;7357471;19;20017;-65
2022/09/22 00:11:54;;;;;;;7.15;4.45;;;7.60;19.10;;;;;;7360718;19;20054;-65
2022/09/22 00:14:26;;;;;;;8.32;4.65;;;7.60;18.40;;;;;;7364478;19;20010;-65
2022/09/22 00:16:59;;;;;;;5.65;4.47;;;7.50;18.40;;;;;;7380443;19;20347;-65
2022/09/22 00:19:31;;;;;;;7.25;5.07;;;7.40;18.90;;;;;;7355816;19;20014;-65
2022/09/22 00:22:04;;;;;;;6.57;4.72;;;7.40;19.50;;;;;;7362661;19;20011;-64
2022/09/22 00:24:35;;;;;;;7.00;4.60;;;7.30;20.10;;;;;;7364732;19;20009;-65
2022/09/22 00:27:05;;;;;;;7.03;4.80;;;7.20;21.20;;;;;;7358303;19;20038;-65
2022/09/22 00:29:35;;;;;;;6.25;4.60;;;7.10;20.90;;;;;;7357847;19;20035;-65
2022/09/22 00:32:05;;;;;;;5.45;4.57;;;6.90;22.10;;;;;;7380749;19;20010;-65
2022/09/22 00:34:36;;;;;;;7.53;5.10;;;6.90;23.20;;;;;;7361936;19;20070;-65
2022/09/22 00:37:08;;;;;;;8.57;4.75;;;6.90;23.50;;;;;;7358452;19;20396;-65
2022/09/22 00:39:38;;;;;;;7.70;5.25;;;6.80;24.20;;;;;;7365090;19;20011;-65
2022/09/22 00:42:08;;;;;;;7.60;5.45;;;6.70;24.50;;;;;;7369768;19;20379;-65
2022/09/22 00:44:40;;;;;;;8.60;5.45;;;6.60;26.00;;;;;;7371233;19;20034;-65
2022/09/22 00:47:29;;;;;;;8.07;4.88;;;6.60;27.20;;;;;;7385680;19;20014;-65
2022/09/22 00:50:04;;;;;;;11.02;5.65;;;6.60;27.40;;;;;;7366958;19;20010;-65
2022/09/22 00:52:42;;;;;;;7.55;5.60;;;6.60;28.00;;;;;;7367000;19;20002;-65
2022/09/22 00:55:16;;;;;;;8.18;5.65;;;6.50;28.30;;;;;;7370001;19;20505;-65
2022/09/22 00:57:49;;;;;;;7.20;5.97;;;6.40;28.60;;;;;;7359332;19;20006;-65
2022/09/22 01:00:19;;;;;;;8.27;5.50;;;6.40;29.30;;;;;;7366156;19;20003;-65
2022/09/22 01:02:52;;;;;;;8.35;6.20;;;6.40;29.50;;;;;;7369052;19;20620;-64
2022/09/22 01:05:23;;;;;;;10.40;6.53;;;6.40;29.80;;;;;;7369540;19;20589;-65
2022/09/22 01:07:56;;;;;;;6.88;6.05;;;6.30;30.00;;;;;;7381589;19;20021;-63
2022/09/22 01:10:26;;;;;;;8.15;6.43;;;6.30;30.50;;;;;;7366126;19;20018;-63
2022/09/22 01:13:08;;;;;;;8.73;5.97;;;6.20;30.50;;;;;;7366780;19;20015;-63
2022/09/22 01:15:46;;;;;;;7.72;5.93;;;6.20;31.20;;;;;;7368608;19;20518;-64
2022/09/22 01:18:32;;;;;;;10.93;6.90;;;6.10;31.70;;;;;;7360583;19;20007;-65
2022/09/22 01:21:32;;;;;;;8.55;7.10;;;6.10;33.30;;;;;;7366117;19;20387;-65
2022/09/22 01:24:35;;;;;;;9.52;6.63;;;6.10;34.10;;;;;;7368596;19;20021;-65
2022/09/22 01:27:46;;;;;;;8.35;6.30;;;6.10;34.70;;;;;;7360379;19;20375;-65
2022/09/22 01:30:24;;;;;;;9.50;6.93;;;6.10;34.80;;;;;;7366205;19;20006;-65
2022/09/22 01:33:06;;;;;;;8.10;6.75;;;6.10;34.80;;;;;;7366474;19;20010;-64
2022/09/22 01:35:45;;;;;;;9.93;6.80;;;6.10;34.80;;;;;;7368182;19;20344;-65
2022/09/22 01:38:24;;;;;;;7.63;6.10;;;6.10;34.70;;;;;;7381716;19;20406;-65
2022/09/22 01:40:59;;;;;;;11.43;7.00;;;6.10;34.80;;;;;;7364257;19;20007;-65
2022/09/22 01:43:38;;;;;;;7.60;6.47;;;6.20;34.90;;;;;;7368007;19;20021;-65
2022/09/22 01:46:16;;;;;;;8.00;6.75;;;6.20;34.80;;;;;;7363954;19;20038;-64
2022/09/22 01:48:50;;;;;;;8.95;6.78;;;6.30;34.70;;;;;;7360897;19;20014;-65
2022/09/22 01:51:24;;;;;;;7.68;6.25;;;6.30;33.90;;;;;;7365221;19;20085;-65
2022/09/22 01:53:59;;;;;;;9.00;6.60;;;6.40;33.30;;;;;;7368014;19;20022;-64
2022/09/22 01:56:33;;;;;;;8.98;6.22;;;6.40;32.60;;;;;;7369193;19;20015;-65
2022/09/22 01:59:06;;;;;;;8.40;6.03;;;6.40;31.90;;;;;;7392290;19;20379;-65
2022/09/22 02:01:43;;;;;;;6.35;5.60;;;6.40;30.90;;;;;;7369348;19;20019;-65
2022/09/22 02:04:19;;;;;;;7.55;5.50;;;6.40;30.70;;;;;;7371515;19;20007;-65
2022/09/22 02:06:54;;;;;;;7.47;5.47;;;6.50;29.90;;;;;;7368924;19;20046;-65
2022/09/22 02:09:28;;;;;;;8.20;5.35;;;6.50;29.20;;;;;;7368515;19;20118;-65
2022/09/22 02:11:58;;;;;;;6.25;5.22;;;6.50;28.70;;;;;;7370293;19;20022;-65
2022/09/22 02:14:29;;;;;;;6.90;5.10;;;6.50;28.70;;;;;;7370473;19;20014;-64
2022/09/22 02:17:02;;;;;;;8.23;5.28;;;6.40;29.10;;;;;;7390214;19;20014;-65
2022/09/22 02:19:36;;;;;;;7.13;5.60;;;6.40;29.00;;;;;;7369005;19;20010;-65
2022/09/22 02:22:07;;;;;;;7.13;5.82;;;6.40;28.90;;;;;;7369446;19;20566;-65
2022/09/22 02:24:39;;;;;;;12.02;5.88;;;6.40;29.10;;;;;;7368503;19;20481;-65
2022/09/22 02:27:12;;;;;;;6.65;5.38;;;6.40;28.60;;;;;;7369152;19;20006;-65
2022/09/22 02:29:45;;;;;;;9.45;5.40;;;6.30;28.80;;;;;;7369545;19;20033;-65
2022/09/22 02:32:19;;;;;;;8.35;5.22;;;6.30;29.30;;;;;;7391220;19;20014;-65
2022/09/22 02:34:49;;;;;;;7.75;5.72;;;6.30;29.40;;;;;;7370523;19;20399;-64
2022/09/22 02:37:26;;;;;;;7.53;5.57;;;6.20;29.40;;;;;;7367615;19;20470;-65
2022/09/22 02:40:07;;;;;;;9.30;5.88;;;6.20;30.00;;;;;;7366822;19;20011;-65
2022/09/22 02:42:43;;;;;;;7.70;5.50;;;6.10;29.80;;;;;;7369933;19;20015;-65
2022/09/22 02:45:18;;;;;;;8.73;5.65;;;6.00;30.40;;;;;;7370066;19;20601;-63
2022/09/22 02:47:56;;;;;;;7.45;5.75;;;6.00;30.40;;;;;;7367872;19;20010;-63
2022/09/22 02:50:28;;;;;;;7.15;5.88;;;6.00;30.70;;;;;;7367478;19;20025;-64
2022/09/22 02:53:02;;;;;;;6.40;5.45;;;6.00;31.10;;;;;;7390336;19;20014;-64
2022/09/22 02:55:32;;;;;;;6.90;5.85;;;5.90;31.40;;;;;;7368343;19;20041;-64
2022/09/22 02:58:02;;;;;;;7.28;5.85;;;6.00;31.90;;;;;;7367413;19;20002;-64
2022/09/22 03:00:32;;;;;;;8.82;6.47;;;6.00;31.40;;;;;;7364382;19;20015;-64
2022/09/22 03:03:04;;;;;;;7.45;5.97;;;6.00;31.60;;;;;;7369181;19;20017;-64
2022/09/22 03:05:34;;;;;;;7.07;5.72;;;6.00;31.60;;;;;;7368017;19;20477;-64
2022/09/22 03:08:04;;;;;;;8.88;5.80;;;6.00;31.50;;;;;;7388816;19;20023;-64
2022/09/22 03:10:34;;;;;;;9.50;6.55;;;6.10;31.70;;;;;;7365903;19;20042;-64
2022/09/22 03:13:04;;;;;;;9.55;5.63;;;6.10;31.10;;;;;;7367948;19;20378;-64
2022/09/22 03:15:49;;;;;;;;;;;6.10;30.60;;;;;;7368791;19;20010;-64
2022/09/22 03:18:22;;;;;;;10.25;5.80;;;6.00;30.80;;;;;;7368485;19;20002;-64
2022/09/22 03:20:52;;;;;;;8.02;6.00;;;6.00;31.00;;;;;;7364815;19;20023;-64
2022/09/22 03:23:21;;;;;;;9.18;5.80;;;6.00;31.00;;;;;;7368953;19;20030;-64
2022/09/22 03:25:51;;;;;;;7.45;6.30;;;5.90;30.90;;;;;;7389409;19;20022;-64
2022/09/22 03:28:21;;;;;;;7.10;5.72;;;5.90;31.30;;;;;;7366799;19;19999;-64
2022/09/22 03:30:51;;;;;;;7.97;6.03;;;5.90;31.60;;;;;;7366501;19;20082;-64
2022/09/22 03:33:24;;;;;;;7.97;6.28;;;5.80;31.80;;;;;;7367843;19;20467;-64
2022/09/22 03:35:53;;;;;;;9.57;6.03;;;5.80;31.90;;;;;;7367265;19;20018;-64
2022/09/22 03:38:23;;;;;;;9.07;6.40;;;5.80;32.00;;;;;;7367995;19;20015;-64
2022/09/22 03:40:54;;;;;;;9.82;6.70;;;5.70;32.50;;;;;;7387297;19;20499;-64
2022/09/22 03:43:23;;;;;;;8.60;6.10;;;5.80;32.50;;;;;;7367939;19;20587;-64
2022/09/22 03:45:59;;;;;;;10.55;6.32;;;5.80;32.60;;;;;;7367844;19;20007;-64
2022/09/22 03:48:32;;;;;;;9.70;6.13;;;5.70;32.50;;;;;;7367498;19;20475;-63
2022/09/22 03:51:02;;;;;;;9.02;6.28;;;5.70;32.70;;;;;;7364114;19;20154;-63
2022/09/22 03:53:32;;;;;;;10.30;5.85;;;5.70;32.60;;;;;;7365141;19;20010;-63
2022/09/22 03:56:10;;;;;;;6.95;6.07;;;5.70;32.50;;;;;;7389198;19;20018;-64
2022/09/22 03:58:40;;;;;;;9.45;6.32;;;5.60;32.60;;;;;;7366492;19;20010;-64
2022/09/22 04:01:11;;;;;;;10.27;6.30;;;5.60;33.10;;;;;;7365646;19;20003;-63
2022/09/22 04:03:43;;;;;;;7.85;6.03;;;5.60;32.90;;;;;;7366766;19;20006;-64
2022/09/22 04:06:13;;;;;;;10.18;6.63;;;5.60;33.10;;;;;;7366258;19;20011;-63
2022/09/22 04:08:43;;;;;;;8.68;6.30;;;5.60;33.30;;;;;;7366316;19;20018;-64
2022/09/22 04:11:13;;;;;;;10.65;7.07;;;5.50;33.50;;;;;;7387642;19;20014;-63
2022/09/22 04:13:43;;;;;;;9.63;6.80;;;5.60;33.90;;;;;;7371133;19;20024;-64
2022/09/22 04:16:15;;;;;;;9.63;6.57;;;5.60;33.90;;;;;;7370692;19;20010;-63
2022/09/22 04:18:47;;;;;;;11.05;7.93;;;5.60;34.20;;;;;;7373265;19;20505;-63
2022/09/22 04:21:17;;;;;;;9.05;6.65;;;5.50;34.20;;;;;;7372788;19;20010;-63
2022/09/22 04:23:47;;;;;;;9.70;7.60;;;5.50;34.20;;;;;;7374994;19;20011;-64
2022/09/22 04:26:17;;;;;;;10.27;7.13;;;5.50;34.40;;;;;;7395102;19;20010;-64
2022/09/22 04:28:46;;;;;;;8.73;6.75;;;5.50;34.50;;;;;;7373901;19;20017;-64
2022/09/22 04:31:16;;;;;;;11.20;6.63;;;5.50;34.60;;;;;;7372456;19;20038;-64
2022/09/22 04:33:49;;;;;;;10.02;7.10;;;5.50;34.60;;;;;;7371471;19;20370;-64
2022/09/22 04:36:18;;;;;;;14.43;7.40;;;5.40;34.20;;;;;;7371422;19;20383;-64
2022/09/22 04:38:48;;;;;;;7.72;6.63;;;5.40;34.50;;;;;;7373864;19;20046;-65
2022/09/22 04:41:18;;;;;;;8.85;6.38;;;5.40;34.90;;;;;;7394780;19;20023;-65
2022/09/22 04:43:48;;;;;;;11.38;7.35;;;5.30;34.90;;;;;;7373880;19;20021;-64
2022/09/22 04:46:18;;;;;;;11.43;7.15;;;5.30;34.90;;;;;;7371870;19;20034;-65
2022/09/22 04:48:50;;;;;;;8.98;6.88;;;5.30;34.80;;;;;;7372594;19;20151;-64
2022/09/22 04:51:20;;;;;;;12.80;7.00;;;5.20;34.70;;;;;;7372013;19;20030;-64
2022/09/22 04:53:49;;;;;;;10.48;6.68;;;5.20;35.00;;;;;;7371643;19;20010;-63
2022/09/22 04:56:19;;;;;;;9.50;7.07;;;5.20;35.60;;;;;;7382153;19;20517;-65
2022/09/22 04:58:49;;;;;;;10.88;7.07;;;5.30;36.20;;;;;;7393947;19;20388;-65
2022/09/22 05:01:19;;;;;;;10.45;7.30;;;5.20;35.50;;;;;;7370632;19;20007;-66
2022/09/22 05:03:53;;;;;;;10.02;7.05;;;5.20;35.80;;;;;;7372867;19;20023;-64
2022/09/22 05:06:24;;;;;;;10.13;7.00;;;5.20;35.50;;;;;;7370568;19;20392;-65
2022/09/22 05:08:54;;;;;;;8.35;6.63;;;5.20;35.20;;;;;;7371179;19;20478;-65
2022/09/22 05:11:24;;;;;;;9.18;7.13;;;5.20;35.50;;;;;;7369189;19;20375;-64
2022/09/22 05:13:54;;;;;;;15.88;7.57;;;5.20;35.20;;;;;;7392499;19;20015;-64
2022/09/22 05:16:24;;;;;;;10.50;7.68;;;5.20;35.20;;;;;;7369130;19;20461;-64
2022/09/22 05:18:56;;;;;;;9.52;7.20;;;5.10;35.10;;;;;;7371450;19;20015;-63
2022/09/22 05:21:26;;;;;;;9.73;7.72;;;5.10;35.00;;;;;;7370612;19;20061;-64
2022/09/22 05:23:56;;;;;;;12.55;6.97;;;5.10;35.00;;;;;;7369181;19;20014;-64
2022/09/22 05:26:26;;;;;;;11.07;7.18;;;5.20;35.30;;;;;;7369657;19;20014;-64
2022/09/22 05:28:56;;;;;;;8.43;7.05;;;5.20;35.30;;;;;;7392379;19;20006;-64
2022/09/22 05:31:26;;;;;;;12.13;7.80;;;5.30;34.90;;;;;;7369951;19;20493;-63
2022/09/22 05:33:59;;;;;;;11.30;7.55;;;5.30;34.70;;;;;;7369285;19;20515;-64
2022/09/22 05:36:29;;;;;;;12.48;8.32;;;5.40;35.40;;;;;;7367748;19;20029;-64
2022/09/22 05:38:59;;;;;;;11.40;7.95;;;5.50;34.40;;;;;;7369289;19;20369;-64
2022/09/22 05:41:28;;;;;;;13.05;8.38;;;5.50;34.30;;;;;;7369643;19;20002;-65
2022/09/22 05:43:58;;;;;;;14.25;8.80;;;5.70;34.00;;;;;;7392785;19;20017;-64
2022/09/22 05:46:28;;;;;;;12.60;9.30;;;5.80;33.60;;;;;;7369215;19;20018;-64
2022/09/22 05:49:00;;;;;;;15.20;9.23;;;6.00;32.70;;;;;;7369327;19;20123;-65
2022/09/22 05:51:30;;;;;;;12.40;7.57;;;6.20;31.60;;;;;;7369163;19;20031;-65
2022/09/22 05:54:00;;;;;;;7.93;7.10;;;6.20;30.50;;;;;;7368609;19;20018;-63
2022/09/22 05:56:29;;;;;;;10.98;6.72;;;6.10;28.70;;;;;;7368604;19;20035;-63
2022/09/22 05:58:59;;;;;;;12.15;7.50;;;6.10;27.80;;;;;;7390083;19;20490;-64
2022/09/22 06:01:29;;;;;;;9.15;7.15;;;6.30;27.60;;;;;;7368336;19;20356;-64
2022/09/22 06:04:02;;;;;;;9.63;7.03;;;6.40;27.30;;;;;;7367718;19;20007;-65
2022/09/22 06:06:32;;;;;;;8.77;6.65;;;6.50;26.00;;;;;;7366504;19;20383;-66
2022/09/22 06:09:02;;;;;;;14.55;6.60;;;6.60;25.10;;;;;;7365465;19;20114;-64
2022/09/22 06:11:31;;;;;;;12.65;6.40;;;6.80;24.30;;;;;;7368675;19;20010;-65
2022/09/22 06:14:01;;;;;;;11.55;6.22;;;6.90;23.30;;;;;;7391456;19;20021;-65
2022/09/22 06:16:32;;;;;;;8.52;6.75;;;7.00;22.00;;;;;;7367507;19;20018;-62
2022/09/22 06:19:05;;;;;;;8.77;5.57;;;7.10;21.80;;;;;;7367635;19;20030;-64
2022/09/22 06:21:35;;;;;;;9.18;5.57;;;7.20;21.60;;;;;;7368535;19;20010;-64
2022/09/22 06:24:05;;;;;;;8.02;5.15;;;7.20;20.70;;;;;;7368754;19;20014;-64
2022/09/22 06:26:35;;;;;;;8.93;5.60;;;7.30;18.90;;;;;;7367478;19;20023;-65
2022/09/22 06:29:05;;;;;;;11.18;5.32;;;7.30;18.80;;;;;;7389371;19;20372;-64
2022/09/22 06:31:35;;;;;;;7.35;5.35;;;7.50;18.20;;;;;;7369213;19;20015;-64
2022/09/22 06:34:07;;;;;;;7.95;5.45;;;7.60;17.20;;;;;;7367505;19;20665;-64
2022/09/22 06:36:37;;;;;;;7.20;5.07;;;7.70;16.60;;;;;;7364551;19;20010;-64
2022/09/22 06:39:09;;;;;;;10.25;4.82;;;7.80;15.70;;;;;;7365984;19;20014;-64
2022/09/22 06:41:38;;;;;;;8.65;5.38;;;8.00;14.50;;;;;;7367194;19;20043;-65
2022/09/22 06:44:13;;;;;;;7.97;5.95;;;8.00;13.70;;;;;;7390328;19;20021;-63
2022/09/22 06:46:44;;;;;;;9.75;5.70;;;8.20;11.80;;;;;;7367373;19;20017;-63
2022/09/22 06:49:16;;;;;;;9.85;5.32;;;8.30;11.10;;;;;;7365749;19;20017;-64
2022/09/22 06:51:48;;;;;;;8.52;5.15;;;8.40;9.50;;;;;;7368952;19;20030;-65
2022/09/22 06:54:18;;;;;;;8.88;5.28;;;8.60;9.30;;;;;;7368256;19;20438;-65
2022/09/22 06:56:51;;;;;;;7.15;4.53;;;8.70;8.30;;;;;;7365930;19;20018;-64
2022/09/22 06:59:21;;;;;;;5.72;4.78;;;8.80;7.60;;;;;;7367161;19;20003;-64
2022/09/22 07:01:51;;;;;;;9.07;5.07;;;8.90;5.30;;;;;;7388999;19;20051;-64
2022/09/22 07:04:23;;;;;;;7.07;4.78;;;8.90;5.00;;;;;;7366549;19;20093;-64
2022/09/22 07:06:53;;;;;;;5.85;4.35;;;9.10;4.30;;;;;;7365260;19;20034;-65
2022/09/22 07:09:23;;;;;;;7.45;4.60;;;9.10;4.10;;;;;;7366095;19;20439;-64
2022/09/22 07:11:53;;;;;;;8.30;4.38;;;9.20;3.80;;;;;;7367468;19;20421;-65
2022/09/22 07:14:24;;;;;;;6.20;4.70;;;9.30;2.00;;;;;;7367952;19;20014;-65
2022/09/22 07:16:54;;;;;;;12.10;5.82;;;9.40;1.00;;;;;;7387450;19;20111;-65
2022/09/22 07:19:26;;;;;;;7.50;4.45;;;9.60;1.00;;;;;;7366711;19;20003;-64
2022/09/22 07:21:56;;;;;;;6.57;4.78;;;9.60;1.00;;;;;;7367195;19;20034;-65
2022/09/22 07:24:26;;;;;;;9.25;4.90;;;9.60;1.00;;;;;;7368183;19;20019;-65
2022/09/22 07:26:56;;;;;;;8.02;4.28;;;9.70;1.00;;;;;;7366080;19;20015;-64
2022/09/22 07:29:27;;;;;;;5.88;4.25;;;9.90;1.00;;;;;;7364585;19;20019;-65
2022/09/22 07:31:57;;;;;;;9.23;5.38;;;10.00;1.00;;;;;;7388432;19;20046;-65
2022/09/22 07:34:30;;;;;;;6.60;4.55;;;10.00;1.00;;;;;;7366040;19;20128;-65
2022/09/22 07:37:01;;;;;;;5.78;4.47;;;10.00;1.00;;;;;;7364107;19;20030;-64
2022/09/22 07:39:31;;;;;;;8.82;4.22;;;10.00;1.00;;;;;;7363093;19;20387;-64
2022/09/22 07:42:01;;;;;;;7.35;4.22;;;10.00;1.00;;;;;;7365846;19;20010;-64
2022/09/22 07:47:13;;;;;;;12.23;4.22;;;10.20;1.00;;;;;;7389155;19;20778;-64
2022/09/22 07:49:46;;;;;;;6.82;3.80;;;10.40;1.00;;;;;;7371112;19;20770;-64
2022/09/22 07:52:15;;;;;;;4.55;3.90;;;10.30;1.00;;;;;;7373167;19;20013;-64
2022/09/22 07:54:45;;;;;;;4.93;3.88;;;10.40;1.00;;;;;;7372646;19;20097;-64
2022/09/22 07:57:15;;;;;;;5.68;4.03;;;10.60;1.00;;;;;;7371358;19;20011;-64
2022/09/22 07:59:45;;;;;;;10.65;4.47;;;10.80;1.00;;;;;;7370103;19;20166;-64
2022/09/22 08:02:14;;;;;;;8.75;5.20;;;10.80;1.00;;;;;;7385303;19;20494;-64
2022/09/22 08:04:47;;;;;;;10.68;4.35;;;10.70;1.00;;;;;;7371306;19;20026;-64
2022/09/22 08:07:17;;;;;;;5.65;4.10;;;10.80;1.00;;;;;;7369134;19;20015;-65
2022/09/22 08:09:47;;;;;;;7.93;3.67;;;10.80;1.00;;;;;;7369504;19;20034;-64
2022/09/22 08:12:16;;;;;;;4.80;3.53;;;10.90;1.00;;;;;;7372531;19;20014;-64
2022/09/22 08:14:46;;;;;;;3.75;3.17;;;11.10;1.00;;;;;;7372370;19;20007;-65
2022/09/22 08:17:17;;;;;;;9.68;3.67;;;11.50;1.00;;;;;;7391191;19;20406;-63
2022/09/22 08:19:49;;;;;;;4.20;3.00;;;11.60;1.00;;;;;;7369238;19;20014;-64
2022/09/22 08:22:21;;;;;;;4.28;2.88;;;11.50;1.00;;;;;;7371533;19;20021;-64
2022/09/22 08:24:50;;;;;;;4.72;3.15;;;11.70;1.00;;;;;;7371991;19;20026;-64
2022/09/22 08:27:20;;;;;;;3.78;2.72;;;11.50;1.00;;;;;;7370618;19;20493;-64
2022/09/22 08:29:50;;;;;;;4.68;3.17;;;11.50;1.00;;;;;;7370536;19;20052;-63
2022/09/22 08:32:20;;;;;;;4.45;2.92;;;11.50;1.00;;;;;;7378237;19;20018;-64
2022/09/22 08:34:56;;;;;;;3.65;2.53;;;11.60;1.00;;;;;;7393853;19;20534;-64
2022/09/22 08:37:31;;;;;;;4.07;2.75;;;11.70;1.00;;;;;;7367698;19;20019;-64
2022/09/22 08:40:00;;;;;;;3.45;2.80;;;11.70;1.00;;;;;;7368568;19;20356;-64
2022/09/22 08:42:31;;;;;;;4.28;2.88;;;11.90;1.00;;;;;;7372583;19;20014;-64
2022/09/22 08:45:06;;;;;;;4.18;3.13;;;12.20;1.00;;;;;;7369725;19;20079;-64
2022/09/22 08:53:20;;;;;;;5.05;2.80;;;12.80;1.00;;;;;;7393905;19;20375;-64
2022/09/22 08:55:59;;;;;;;7.75;3.05;;;13.00;1.00;;;;;;7371170;19;20686;-65
2022/09/22 08:58:38;;;;;;;5.35;2.85;;;13.20;1.00;;;;;;7367209;19;20014;-63
2022/09/22 09:01:27;;;;;;;6.10;2.58;;;13.20;1.00;;;;;;7370248;19;20014;-65
2022/09/22 09:04:10;;;;;;;3.75;2.50;;;13.40;1.00;;;;;;7370614;19;20014;-65
2022/09/22 09:06:52;;;;;;;3.13;2.20;;;13.50;1.00;;;;;;7369835;19;20027;-64
2022/09/22 09:09:38;;;;;;;3.38;2.60;;;13.50;1.00;;;;;;7367224;19;20010;-65
2022/09/22 09:12:31;;;;;;;4.53;2.10;;;13.30;1.00;;;;;;7360001;19;20111;-64
2022/09/22 09:15:16;;;;;;;5.60;2.35;;;13.30;1.00;;;;;;7362299;19;20021;-63
2022/09/22 09:17:48;;;;;;;3.20;2.13;;;13.40;1.00;;;;;;7358286;19;20021;-63
2022/09/22 09:20:20;;;;;;;3.20;2.70;;;13.40;1.00;;;;;;7380500;19;20029;-64
2022/09/22 09:22:56;;;;;;;4.07;2.70;;;13.30;1.00;;;;;;7359480;19;20272;-64
2022/09/22 09:25:35;;;;;;;2.50;2.30;;;13.60;1.00;;;;;;7356177;19;20011;-64
2022/09/22 09:28:09;;;;;;;3.70;2.40;;;14.00;1.00;;;;;;7356110;19;20011;-66
2022/09/22 09:30:46;;;;;;;2.40;1.80;;;14.00;1.00;;;;;;7357499;19;20018;-64
2022/09/22 09:33:24;;;;;;;4.47;2.03;;;14.10;1.00;;;;;;7357775;19;20011;-64
2022/09/22 09:35:54;;;;;;;13.38;8.70;;;14.00;1.00;;;;;;7355840;19;20018;-64
2022/09/22 09:38:29;;;;;;;3.65;2.30;;;14.30;1.00;;;;;;7354725;19;20066;-64
2022/09/22 09:41:09;;;;;;;3.50;2.05;;;14.40;1.00;;;;;;7379303;19;20042;-64
2022/09/22 09:43:41;;;;;;;2.83;2.00;;;14.40;1.00;;;;;;7359607;19;20019;-64
2022/09/22 09:46:25;;;;;;;5.55;2.25;;;14.20;1.00;;;;;;7357179;19;20014;-65
2022/09/22 09:49:06;;;;;;;2.80;2.13;;;14.20;1.00;;;;;;7356411;19;20114;-64
2022/09/22 09:51:41;;;;;;;4.63;2.08;;;14.30;1.00;;;;;;7358154;19;20851;-66
2022/09/22 09:54:15;;;;;;;2.85;1.60;;;14.60;1.00;;;;;;7356598;19;20002;-64
2022/09/22 09:57:13;;;;;;;2.08;1.55;;;14.60;1.00;;;;;;7356008;19;20021;-65
2022/09/22 10:02:30;;;;;;;3.63;1.63;;;14.90;1.00;;;;;;7381155;19;20022;-64
2022/09/22 10:05:03;;;;;;;1.80;1.40;;;15.00;1.00;;;;;;7382201;19;20346;-64
2022/09/22 10:07:43;;;;;;;1.98;1.60;;;14.80;1.00;;;;;;7378556;19;20015;-64
2022/09/22 10:10:34;;;;;;;3.85;1.60;;;15.00;1.00;;;;;;7379677;19;20015;-64
2022/09/22 10:13:26;;;;;;;1.95;1.30;;;15.50;1.00;;;;;;7380989;19;20022;-65
2022/09/22 10:16:08;;;;;;;2.47;1.58;;;15.40;1.00;;;;;;7380819;19;20025;-64
2022/09/22 10:18:41;;;;;;;3.67;1.80;;;15.50;1.00;;;;;;7379497;19;20090;-64
2022/09/22 10:21:16;;;;;;;1.80;1.27;;;15.40;1.00;;;;;;7378979;19;20827;-64
2022/09/22 10:23:48;;;;;;;2.15;1.20;;;15.30;1.00;;;;;;7382540;19;20023;-64
2022/09/22 10:26:25;;;;;;;1.85;0.98;;;15.50;1.00;;;;;;7379272;19;20018;-64
2022/09/22 10:29:16;;;;;;;3.20;1.27;;;15.30;1.00;;;;;;7380739;19;20110;-64
2022/09/22 10:32:04;;;;;;;2.58;1.20;;;15.20;1.00;;;;;;7381473;19;20039;-66
2022/09/22 10:34:35;;;;;;;2.67;0.93;;;15.40;1.00;;;;;;7380066;19;20073;-64
2022/09/22 10:37:09;;;;;;;2.80;1.13;;;15.50;1.00;;;;;;7378825;19;20785;-64
2022/09/22 10:39:45;;;;;;;1.48;0.88;;;15.90;1.00;;;;;;7379173;19;20078;-64
2022/09/22 10:42:32;;;;;;;4.30;1.13;;;15.90;1.00;;;;;;7381468;19;20011;-64
2022/09/22 10:45:05;;;;;;;1.77;1.13;;;15.70;1.00;;;;;;7381416;19;20025;-65
2022/09/22 10:47:51;;;;;;;2.38;1.30;;;15.90;1.00;;;;;;7377662;19;20021;-63
2022/09/22 10:50:38;;;;;;;1.75;1.13;;;16.00;1.00;;;;;;7378993;19;20486;-65
2022/09/22 10:53:26;;;;;;;3.40;1.05;;;16.10;1.00;;;;;;7382541;19;20014;-64
2022/09/22 10:56:07;;;;;;;5.50;1.35;;;16.10;1.00;;;;;;7382064;19;20470;-65
2022/09/22 10:58:55;;;;;;;3.35;1.27;;;15.90;1.00;;;;;;7378897;19;20019;-64
2022/09/22 11:01:48;;;;;;;1.67;1.15;;;15.80;1.00;;;;;;7379736;19;20014;-64
2022/09/22 11:04:33;;;;;;;2.47;0.98;;;15.90;1.00;;;;;;7381593;19;20015;-64
2022/09/22 11:13:13;;;;;;;2.78;1.85;;;16.30;1.00;;;;;;7379529;19;20014;-69
2022/09/22 11:16:12;;;;;;;7.80;2.50;;;16.40;1.00;;;;;;7379519;19;20304;-68
2022/09/22 11:19:09;;;;;;;2.03;1.00;;;16.50;1.00;;;;;;7350201;19;20022;-64
2022/09/22 11:21:52;;;;;;;2.72;0.90;;;16.60;1.00;;;;;;7348564;19;20018;-63
2022/09/22 11:24:37;;;;;;;1.50;0.90;;;16.50;1.00;;;;;;7357028;19;20038;-62
2022/09/22 11:27:14;;;;;;;1.48;0.88;;;16.40;1.00;;;;;;7354823;19;20029;-64
2022/09/22 11:30:07;;;;;;;2.10;1.00;;;16.50;1.00;;;;;;7355526;19;20474;-64
2022/09/22 11:33:01;;;;;;;1.80;0.98;;;16.50;1.00;;;;;;7355563;19;20426;-64
2022/09/22 11:35:51;;;;;;;1.83;1.08;;;16.70;1.00;;;;;;7357250;19;20014;-63
2022/09/22 11:38:36;;;;;;;3.13;1.20;;;16.70;1.00;;;;;;7364333;19;20014;-64
2022/09/22 11:41:28;;;;;;;1.77;1.00;;;16.80;1.00;;;;;;7365462;19;20035;-65
2022/09/22 11:44:24;;;;;;;2.17;1.10;;;17.10;1.00;;;;;;7366412;19;20022;-68
2022/09/22 11:47:08;;;;;;;2.22;0.90;;;16.90;1.00;;;;;;7364003;19;20018;-67
2022/09/22 11:49:56;;;;;;;2.83;1.00;;;16.90;1.00;;;;;;7364310;19;20019;-68
2022/09/22 11:52:41;;;;;;;2.22;1.13;;;16.90;1.00;;;;;;7374427;19;20015;-67
2022/09/22 11:55:28;;;;;;;8.95;1.50;;;17.00;1.00;;;;;;7362546;19;20021;-76
2022/09/22 11:58:02;;;;;;;1.63;0.90;;;17.20;1.00;;;;;;7362949;19;20015;-87
2022/09/22 12:00:38;;;;;;;1.17;0.77;;;17.20;1.00;;;;;;7362346;19;20014;-86
2022/09/22 12:03:13;;;;;;;1.95;0.90;;;17.00;1.00;;;;;;7360494;19;20015;-70
2022/09/22 12:05:50;;;;;;;2.08;0.90;;;16.90;1.00;;;;;;7362401;19;20546;-65
2022/09/22 12:08:22;;;;;;;1.67;1.10;;;17.00;1.00;;;;;;7359456;19;20014;-64
2022/09/22 12:10:52;;;;;;;2.08;1.10;;;17.10;1.00;;;;;;7362595;19;20020;-65
2022/09/22 12:13:25;;;;;;;7.05;5.88;;;17.00;1.00;;;;;;7379747;19;20049;-65
2022/09/22 12:16:05;;;;;;;1.95;1.10;;;17.30;1.00;;;;;;7359265;19;20022;-65
2022/09/22 12:18:45;;;;;;;1.40;0.93;;;17.40;1.00;;;;;;7357527;19;20019;-66
2022/09/22 12:21:35;;;;;;;3.22;0.90;;;17.30;1.00;;;;;;7361137;19;20013;-66
2022/09/22 12:24:10;;;;;;;1.15;0.98;;;17.50;1.00;;;;;;7356673;19;20362;-66
2022/09/22 12:26:43;;;;;;;1.08;0.90;;;17.60;1.00;;;;;;7356709;19;20081;-64
2022/09/22 12:29:26;;;;;;;2.72;1.00;;;17.30;1.00;;;;;;7361120;19;20026;-65
2022/09/22 12:31:58;;;;;;;2.00;0.88;;;17.30;1.00;;;;;;7359887;19;20014;-65
2022/09/22 12:34:30;;;;;;;2.25;0.85;;;17.40;1.00;;;;;;7383371;19;20019;-66
2022/09/22 12:37:13;;;;;;;1.38;0.93;;;17.20;1.00;;;;;;7366542;19;20038;-66
2022/09/22 12:39:44;;;;;;;1.70;1.00;;;17.40;1.00;;;;;;7367428;19;20090;-64
2022/09/22 12:42:22;;;;;;;1.55;0.98;;;17.40;1.00;;;;;;7369739;19;20363;-65
2022/09/22 12:44:55;;;;;;;1.10;1.00;;;17.30;1.00;;;;;;7362235;19;20023;-66
2022/09/22 12:47:32;;;;;;;1.35;1.15;;;17.30;1.00;;;;;;7364447;19;20010;-65
2022/09/22 12:50:05;;;;;;;2.08;1.20;;;17.20;1.00;;;;;;7366706;19;20029;-65
2022/09/22 12:53:02;;;;;;;2.38;0.90;;;17.30;1.00;;;;;;7367641;19;20014;-65
2022/09/22 12:55:37;;;;;;;1.63;1.05;;;17.60;1.00;;;;;;7390244;19;20493;-67
2022/09/22 12:58:39;;;;;;;1.52;0.80;;;17.60;1.00;;;;;;7365444;19;20666;-66
2022/09/22 13:01:34;;;;;;;3.60;0.82;;;17.60;1.00;;;;;;7364079;19;20014;-65
2022/09/22 13:04:15;;;;;;;1.63;0.98;;;17.70;1.00;;;;;;7363031;19;20016;-65
2022/09/22 13:06:57;;;;;;;3.65;1.05;;;17.50;1.00;;;;;;7363857;19;20036;-66
2022/09/22 13:09:31;;;;;;;1.77;0.90;;;17.50;1.00;;;;;;7365383;19;20033;-66
2022/09/22 13:12:26;;;;;;;2.28;0.90;;;17.90;1.00;;;;;;7368519;19;20133;-65
2022/09/22 13:15:15;;;;;;;1.45;1.00;;;17.80;1.00;;;;;;7359889;19;20085;-66
2022/09/22 13:17:48;;;;;;;4.78;1.20;;;17.80;1.00;;;;;;7365107;19;20014;-65
2022/09/22 13:20:21;;;;;;;1.77;0.90;;;17.70;1.00;;;;;;7364037;19;20006;-66
2022/09/22 13:22:51;;;;;;;2.13;1.13;;;17.70;1.00;;;;;;7357280;19;20014;-66
2022/09/22 13:25:30;;;;;;;1.90;1.10;;;17.70;1.00;;;;;;7387527;19;20025;-66
2022/09/22 13:28:12;;;;;;;1.30;0.77;;;17.80;1.00;;;;;;7361269;19;20081;-66
2022/09/22 13:30:43;;;;;;;3.20;1.13;;;17.80;1.00;;;;;;7363595;19;20093;-66
2022/09/22 13:33:24;;;;;;;3.92;1.10;;;17.70;1.00;;;;;;7359331;19;20046;-66
2022/09/22 13:36:05;;;;;;;1.90;0.80;;;17.90;1.00;;;;;;7366719;19;20470;-66
2022/09/22 13:38:38;;;;;;;1.10;1.00;;;17.70;1.00;;;;;;7363141;19;20010;-66
2022/09/22 13:41:19;;;;;;;1.40;0.77;;;17.80;1.00;;;;;;7365460;19;20018;-67
2022/09/22 13:43:53;;;;;;;2.17;1.10;;;17.70;1.00;;;;;;7359747;19;20039;-66
2022/09/22 13:46:26;;;;;;;3.47;1.30;;;17.70;1.00;;;;;;7385989;19;20037;-66
2022/09/22 13:48:58;;;;;;;4.65;1.00;;;18.00;1.00;;;;;;7364181;19;20511;-66
2022/09/22 13:51:28;;;;;;;2.35;0.90;;;18.00;1.00;;;;;;7365152;19;20017;-66
2022/09/22 13:53:59;;;;;;;1.98;0.93;;;18.00;1.00;;;;;;7361376;19;20034;-66